ソルトレイクシティ の空港の天気 - METARとTAF

ソルト・レーク・シティ国際空港 ( KSLC / SLC ) - アメリカ ユタ州ソルトレイクシティ
飛行場実況気象(Metar)
観測時間04/21 10:54 MDT (04/21 16:54 UTC)
風向・風速北西 3m/s
視程10km以上
天気現象
少しの雲 雲底高度 610m
全天の4割程度の雲 雲底高度 2290m
全天の8割程度の雲 雲底高度 3350m
全天の8割程度の雲 雲底高度 6100m
気温13.3℃
湿度75%
気圧1007.7hPa
METARKSLC 211654Z 32006KT 10SM FEW020 SCT075 BKN110 BKN200 13/09 A2984 RMK AO2 SLP077 TCU DSNT W AND NW T01330089 $
過去の天気等 Google飛行場航空写真 Wunderground天気予報

過去48時間のMETAR

飛行場予報(TAF)
発表時間: 4/21 09:03 MDT (4/21 15:03 UTC)
予報対象時間: 21日9時 MDT ~ 22日12時 MDT
風向・風速北北西 3m/s
視程10km以上
天気現象周辺でしゅう雨
全天の4割程度の雲 雲底高度 1520m
全天の8割程度の雲 雲底高度 2740m
21日14時 MDT から
風向・風速北北西 5m/s
視程8050m
天気現象弱い雨 もや
全天の8割程度の雲 雲底高度 760m
全天を覆う雲 雲底高度 1220m
21日20時 MDT から
風向・風速北 3m/s
視程10km以上
天気現象弱いしゅう雨
全天の4割程度の雲 雲底高度 760m
全天を覆う雲 雲底高度 1220m
22日1時 MDT から
風向・風速北 3m/s
視程10km以上
天気現象弱いしゅう雨
全天の4割程度の雲 雲底高度 1070m
全天の8割程度の雲 雲底高度 2130m
22日7時 MDT から
風向・風速北 3m/s
視程10km以上
全天の4割程度の雲 雲底高度 1520m
全天の8割程度の雲 雲底高度 2740m
KSLC 211503Z 2115/2218 34006KT P6SM VCSH SCT050 BKN090
FM212000 33010KT 5SM -RA BR BKN025 OVC040
FM220200 35005KT P6SM -SHRA SCT025 OVC040
FM220700 35005KT P6SM -SHRA SCT035 BKN070
FM221300 01006KT P6SM SCT050 BKN090